Ackworth, Iowa
Current Conditions -  °F | °C
As of 4:54 PM on Tuesday 27 Jan 2015 (Local Time) from KDSM Reporting Station
Scattered Clouds Scattered Clouds  
Wind Chill: 37°   Ceiling: Unl
Heat Index: 43°   Visibility: 10mi
Dew Point: 31°   Wind: 10mph
Humidity: 62%   Direction: 120°ESE
Pressure: 30.13"   Gusts: NA
Location:  41.37°N, 93.47°W
Report Text: KDSM 272254Z 12009KT 10SM SCT300 06/M01 A3013 RMK AO2 SLP212 T00611006
Loading
Personal Weather Stations






























Interactive Weather Map New forecast layout! Learn more

10-Day Weather Forecast

Advertisements
Track Severe Weather on mobile